createdAt,value
2018-09-11T00:01:44.374Z,54.00
2018-09-11T00:04:12.008Z,54.12
2018-09-11T00:06:39.537Z,53.63
2018-09-11T00:09:08.086Z,54.06
2018-09-11T00:11:35.592Z,54.03
2018-09-11T00:14:03.136Z,53.63
2018-09-11T00:16:30.661Z,53.97
2018-09-11T00:18:58.319Z,53.97
2018-09-11T00:21:25.842Z,53.60
2018-09-11T00:23:53.342Z,53.94
2018-09-11T00:26:20.890Z,53.63
2018-09-11T00:28:48.812Z,53.79
2018-09-11T00:31:16.389Z,53.54
2018-09-11T00:33:43.891Z,53.89
2018-09-11T00:36:11.409Z,53.82
2018-09-11T00:38:38.948Z,53.49
2018-09-11T00:41:06.530Z,53.55
2018-09-11T00:43:34.068Z,53.37
2018-09-11T00:46:01.578Z,53.50
2018-09-11T00:48:29.097Z,53.77
2018-09-11T00:50:56.660Z,53.90
2018-09-11T00:53:24.154Z,53.69
2018-09-11T00:55:51.635Z,53.64
2018-09-11T00:58:19.147Z,53.21
2018-09-11T01:00:46.701Z,53.67
2018-09-11T01:03:14.220Z,53.24
2018-09-11T01:05:41.750Z,53.18
2018-09-11T01:08:09.269Z,53.70
2018-09-11T01:10:36.797Z,53.65
2018-09-11T01:13:04.341Z,53.57
2018-09-11T01:18:16.056Z,53.49
2018-09-11T01:20:43.580Z,53.49
2018-09-11T01:23:11.116Z,53.14
2018-09-11T01:25:38.706Z,53.32
2018-09-11T01:28:06.197Z,53.52
2018-09-11T01:30:33.675Z,53.53
2018-09-11T01:33:01.230Z,53.02
2018-09-11T01:35:28.748Z,53.46
2018-09-11T01:37:56.312Z,53.21
2018-09-11T01:40:23.823Z,53.05
2018-09-11T01:42:51.412Z,53.38
2018-09-11T01:45:18.969Z,53.13
2018-09-11T01:47:46.641Z,52.98
2018-09-11T01:50:14.152Z,53.01
2018-09-11T01:52:41.678Z,52.95
2018-09-11T01:55:09.253Z,53.40
2018-09-11T01:57:36.786Z,53.42
2018-09-11T02:00:04.439Z,52.98
2018-09-11T02:02:31.998Z,53.36
2018-09-11T02:04:59.527Z,53.29
2018-09-11T02:07:27.082Z,53.00
2018-09-11T02:09:54.690Z,53.35
2018-09-11T02:12:22.264Z,52.83
2018-09-11T02:14:49.794Z,52.89
2018-09-11T02:17:17.356Z,53.08
2018-09-11T02:19:44.866Z,52.86
2018-09-11T02:22:12.391Z,52.85
2018-09-11T02:24:39.890Z,52.88
2018-09-11T02:27:07.470Z,53.05
2018-09-11T02:29:34.958Z,52.84
2018-09-11T02:32:02.437Z,53.14
2018-09-11T02:34:29.898Z,52.72
2018-09-11T02:36:57.450Z,52.72
2018-09-11T02:39:24.950Z,52.74
2018-09-11T02:41:52.467Z,52.95
2018-09-11T02:44:20.063Z,52.76
2018-09-11T02:46:47.608Z,52.69
2018-09-11T02:49:15.141Z,53.09
2018-09-11T02:51:42.722Z,52.81
2018-09-11T02:54:10.312Z,52.78
2018-09-11T02:56:37.819Z,53.10
2018-09-11T02:59:05.370Z,53.10
2018-09-11T03:01:32.932Z,53.19
2018-09-11T03:04:00.546Z,52.77
2018-09-11T03:06:28.096Z,53.29
2018-09-11T03:08:55.607Z,53.07
2018-09-11T03:11:23.236Z,52.93
2018-09-11T03:13:50.829Z,53.20
2018-09-11T03:16:18.460Z,52.83
2018-09-11T03:18:46.046Z,53.32
2018-09-11T03:21:13.580Z,53.30
2018-09-11T03:23:41.114Z,52.94
2018-09-11T03:26:08.627Z,52.97
2018-09-11T03:28:36.238Z,53.06
2018-09-11T03:31:03.829Z,53.49
2018-09-11T03:33:31.367Z,53.11
2018-09-11T03:35:58.882Z,53.47
2018-09-11T03:38:26.400Z,53.07
2018-09-11T03:40:53.947Z,53.58
2018-09-11T03:43:21.519Z,53.61
2018-09-11T03:45:49.926Z,53.64
2018-09-11T03:48:19.212Z,53.51
2018-09-11T03:50:48.105Z,53.50
2018-09-11T03:53:15.682Z,53.53
2018-09-11T03:55:43.334Z,53.49
2018-09-11T03:58:10.962Z,52.98
2018-09-11T04:00:38.564Z,53.01
2018-09-11T04:03:06.051Z,52.96
2018-09-11T04:05:33.700Z,53.09
2018-09-11T04:08:01.761Z,53.14
2018-09-11T04:10:29.519Z,53.12
2018-09-11T04:12:57.148Z,53.05
2018-09-11T04:15:24.878Z,53.51
2018-09-11T04:17:52.388Z,53.25
2018-09-11T04:20:20.362Z,53.62
2018-09-11T04:22:48.066Z,53.21
2018-09-11T04:25:15.594Z,53.29
2018-09-11T04:27:43.174Z,53.70
2018-09-11T04:30:11.906Z,53.69
2018-09-11T04:32:40.190Z,53.33
2018-09-11T04:35:07.740Z,53.37
2018-09-11T04:37:35.290Z,53.79
2018-09-11T04:40:02.774Z,53.57
2018-09-11T04:42:30.342Z,53.48
2018-09-11T04:44:57.842Z,53.92
2018-09-11T04:47:25.347Z,54.07
2018-09-11T04:49:52.920Z,54.00
2018-09-11T04:52:20.496Z,53.54
2018-09-11T04:54:47.990Z,54.01
2018-09-11T04:57:15.732Z,53.52
2018-09-11T04:59:43.266Z,53.60
2018-09-11T05:02:10.786Z,53.57
2018-09-11T05:04:38.358Z,53.82
2018-09-11T05:07:05.926Z,53.76
2018-09-11T05:09:33.530Z,53.43
2018-09-11T05:12:01.138Z,53.39
2018-09-11T05:14:28.880Z,53.82
2018-09-11T05:16:56.458Z,53.39
2018-09-11T05:19:23.946Z,53.75
2018-09-11T05:21:51.469Z,53.31
2018-09-11T05:24:19.035Z,53.22
2018-09-11T05:26:46.656Z,53.71
2018-09-11T05:29:14.167Z,53.64
2018-09-11T05:31:41.758Z,53.63
2018-09-11T05:34:09.351Z,53.65
2018-09-11T05:36:36.902Z,53.15
2018-09-11T05:39:06.136Z,53.42
2018-09-11T05:41:33.619Z,53.05
2018-09-11T05:44:01.149Z,53.43
2018-09-11T05:46:28.674Z,52.93
2018-09-11T05:48:56.221Z,53.34
2018-09-11T05:51:23.801Z,53.25
2018-09-11T05:53:51.365Z,52.81
2018-09-11T05:56:18.878Z,53.21
2018-09-11T05:58:46.396Z,52.76
2018-09-11T06:01:13.925Z,52.67
2018-09-11T06:03:41.458Z,52.72
2018-09-11T06:06:08.938Z,52.98
2018-09-11T06:08:36.435Z,52.67
2018-09-11T06:11:03.983Z,52.63
2018-09-11T06:13:31.563Z,53.06
2018-09-11T06:15:59.106Z,52.65
2018-09-11T06:18:26.664Z,52.62
2018-09-11T06:20:54.227Z,52.99
2018-09-11T06:23:21.716Z,52.61
2018-09-11T06:25:49.274Z,53.05
2018-09-11T06:28:16.784Z,52.58
2018-09-11T06:30:44.288Z,52.46
2018-09-11T06:33:11.811Z,52.98
2018-09-11T06:35:39.322Z,52.98
2018-09-11T06:38:06.856Z,52.92
2018-09-11T06:40:34.410Z,52.85
2018-09-11T06:43:02.085Z,52.90
2018-09-11T06:45:29.722Z,52.49
2018-09-11T06:47:57.245Z,52.49
2018-09-11T06:50:24.741Z,52.40
2018-09-11T06:52:52.224Z,52.66
2018-09-11T06:55:19.738Z,52.68
2018-09-11T06:57:47.250Z,52.37
2018-09-11T07:00:14.750Z,52.42
2018-09-11T07:02:42.336Z,52.52
2018-09-11T07:05:09.858Z,52.91
2018-09-11T07:07:37.374Z,52.93
2018-09-11T07:10:05.194Z,52.58
2018-09-11T07:12:32.736Z,52.57
2018-09-11T07:15:00.250Z,52.86
2018-09-11T07:17:27.725Z,52.96
2018-09-11T07:19:55.358Z,52.63
2018-09-11T07:22:22.832Z,52.97
2018-09-11T07:24:50.546Z,52.97
2018-09-11T07:27:18.190Z,52.90
2018-09-11T07:29:45.850Z,52.97
2018-09-11T07:32:13.354Z,52.56
2018-09-11T07:34:40.858Z,52.56
2018-09-11T07:37:08.419Z,52.90
2018-09-11T07:39:35.918Z,52.50
2018-09-11T07:42:03.406Z,52.80
2018-09-11T07:44:30.931Z,53.00
2018-09-11T07:46:58.429Z,52.96
2018-09-11T07:49:25.988Z,52.64
2018-09-11T07:51:53.474Z,52.58
2018-09-11T07:54:20.989Z,52.97
2018-09-11T07:56:48.564Z,52.69
2018-09-11T07:59:16.071Z,52.61
2018-09-11T08:01:43.602Z,53.03
2018-09-11T08:04:11.161Z,52.57
2018-09-11T08:06:38.699Z,53.08
2018-09-11T08:09:08.473Z,52.51
2018-09-11T08:11:36.057Z,52.53
2018-09-11T08:14:03.554Z,52.83
2018-09-11T08:16:31.125Z,52.95
2018-09-11T08:18:58.592Z,52.47
2018-09-11T08:21:26.120Z,52.60
2018-09-11T08:23:53.709Z,52.58
2018-09-11T08:26:21.222Z,52.52
2018-09-11T08:28:48.738Z,52.54
2018-09-11T08:31:16.386Z,52.94
2018-09-11T08:33:43.916Z,52.98
2018-09-11T08:36:11.406Z,52.95
2018-09-11T08:38:38.934Z,52.79
2018-09-11T08:41:06.524Z,53.01
2018-09-11T08:43:33.982Z,52.49
2018-09-11T08:46:01.546Z,53.10
2018-09-11T08:48:29.054Z,52.68
2018-09-11T08:50:56.606Z,53.15
2018-09-11T08:53:24.109Z,52.99
2018-09-11T08:55:51.636Z,52.83
2018-09-11T08:58:19.151Z,52.64
2018-09-11T09:00:46.737Z,52.48
2018-09-11T09:03:14.285Z,52.56
2018-09-11T09:05:41.782Z,52.79
2018-09-11T09:08:09.835Z,52.57
2018-09-11T09:10:37.327Z,53.00
2018-09-11T09:13:04.932Z,52.52
2018-09-11T09:15:32.445Z,53.03
2018-09-11T09:18:00.041Z,52.57
2018-09-11T09:20:27.718Z,52.48
2018-09-11T09:22:55.225Z,52.51
2018-09-11T09:25:22.822Z,52.73
2018-09-11T09:27:50.575Z,53.06
2018-09-11T09:30:18.155Z,52.96
2018-09-11T09:32:45.772Z,52.54
2018-09-11T09:35:13.319Z,52.55
2018-09-11T09:37:40.821Z,52.92
2018-09-11T09:40:08.333Z,53.00
2018-09-11T09:42:35.904Z,52.44
2018-09-11T09:45:03.686Z,52.93
2018-09-11T09:47:31.283Z,52.63
2018-09-11T09:49:58.778Z,52.64
2018-09-11T09:52:26.701Z,52.47
2018-09-11T09:54:54.239Z,52.89
2018-09-11T09:57:21.833Z,52.49
2018-09-11T09:59:49.506Z,52.48
2018-09-11T10:02:24.114Z,52.93
2018-09-11T10:04:52.277Z,52.96
2018-09-11T10:07:20.414Z,52.67
2018-09-11T10:09:47.898Z,52.51
2018-09-11T10:12:15.498Z,52.57
2018-09-11T10:14:43.055Z,52.83
2018-09-11T10:17:11.022Z,52.87
2018-09-11T10:19:38.637Z,52.92
2018-09-11T10:22:06.156Z,53.05
2018-09-11T10:24:34.307Z,52.59
2018-09-11T10:27:01.919Z,52.52
2018-09-11T10:29:29.497Z,52.58
2018-09-11T10:31:57.002Z,52.59
2018-09-11T10:34:24.978Z,53.13
2018-09-11T10:36:52.501Z,53.03
2018-09-11T10:39:20.115Z,52.69
2018-09-11T10:41:47.667Z,52.61
2018-09-11T10:44:15.165Z,52.70
2018-09-11T10:46:42.654Z,52.66
2018-09-11T10:49:10.159Z,52.75
2018-09-11T10:51:38.061Z,53.18
2018-09-11T10:54:05.534Z,52.81
2018-09-11T10:56:33.202Z,53.26
2018-09-11T10:59:00.738Z,52.90
2018-09-11T11:01:28.253Z,53.35
2018-09-11T11:03:55.837Z,52.81
2018-09-11T11:06:23.425Z,52.86
2018-09-11T11:08:50.977Z,53.10
2018-09-11T11:11:18.492Z,53.36
2018-09-11T11:13:46.016Z,52.97
2018-09-11T11:16:13.491Z,53.40
2018-09-11T11:18:40.999Z,53.01
2018-09-11T11:21:08.533Z,53.42
2018-09-11T11:23:36.046Z,53.43
2018-09-11T11:26:03.568Z,53.44
2018-09-11T11:28:31.063Z,53.54
2018-09-11T11:30:58.640Z,53.46
2018-09-11T11:33:26.153Z,53.05
2018-09-11T11:35:53.653Z,53.12
2018-09-11T11:38:21.231Z,53.13
2018-09-11T11:40:48.764Z,53.55
2018-09-11T11:43:16.282Z,53.15
2018-09-11T11:45:43.808Z,53.19
2018-09-11T11:48:11.396Z,53.63
2018-09-11T11:50:38.986Z,53.55
2018-09-11T11:53:06.583Z,53.11
2018-09-11T11:55:34.141Z,53.65
2018-09-11T11:58:01.708Z,53.62
2018-09-11T12:00:29.282Z,53.64
2018-09-11T12:02:56.856Z,53.34
2018-09-11T12:05:24.386Z,53.31
2018-09-11T12:07:52.794Z,53.21
2018-09-11T12:10:20.945Z,53.66
2018-09-11T12:12:48.508Z,53.38
2018-09-11T12:15:16.062Z,53.31
2018-09-11T12:17:43.623Z,53.72
2018-09-11T12:20:11.256Z,53.74
2018-09-11T12:22:38.766Z,53.16
2018-09-11T12:25:06.278Z,53.21
2018-09-11T12:27:33.811Z,53.60
2018-09-11T12:30:01.451Z,53.22
2018-09-11T12:32:28.966Z,53.15
2018-09-11T12:34:56.491Z,53.17
2018-09-11T12:37:24.127Z,53.62
2018-09-11T12:39:51.827Z,53.39
2018-09-11T12:42:19.402Z,53.59
2018-09-11T12:44:46.940Z,53.59
2018-09-11T12:47:14.772Z,53.53
2018-09-11T12:49:42.374Z,53.06
2018-09-11T12:52:10.239Z,53.10
2018-09-11T12:54:37.761Z,53.04
2018-09-11T12:57:05.554Z,53.12
2018-09-11T12:59:33.010Z,53.39
2018-09-11T13:02:00.561Z,53.10
2018-09-11T13:04:28.133Z,53.17
2018-09-11T13:06:55.636Z,53.09
2018-09-11T13:09:23.215Z,52.97
2018-09-11T13:11:50.847Z,52.99
2018-09-11T13:14:18.393Z,52.94
2018-09-11T13:16:45.943Z,53.05
2018-09-11T13:19:13.603Z,53.49
2018-09-11T13:21:41.134Z,53.12
2018-09-11T13:24:08.792Z,53.51
2018-09-11T13:26:36.329Z,53.26
2018-09-11T13:29:03.906Z,53.70
2018-09-11T13:31:31.406Z,53.22
2018-09-11T13:33:59.048Z,53.81
2018-09-11T13:36:26.626Z,53.31
2018-09-11T13:38:54.146Z,53.40
2018-09-11T13:41:21.691Z,53.83
2018-09-11T13:43:50.146Z,53.62
2018-09-11T13:46:18.518Z,53.63
2018-09-11T13:48:46.710Z,54.00
2018-09-11T13:51:14.894Z,54.03
2018-09-11T13:53:43.131Z,53.48
2018-09-11T13:56:11.379Z,53.79
2018-09-11T13:58:39.653Z,53.71
2018-09-11T14:01:08.224Z,53.91
2018-09-11T14:03:36.445Z,53.51
2018-09-11T14:06:04.662Z,53.41
2018-09-11T14:08:32.964Z,53.51
2018-09-11T14:11:01.215Z,53.93
2018-09-11T14:13:29.434Z,54.00
2018-09-11T14:15:57.663Z,53.57
2018-09-11T14:18:25.970Z,54.02
2018-09-11T14:20:54.227Z,53.87
2018-09-11T14:23:22.543Z,54.08
2018-09-11T14:25:50.809Z,53.69
2018-09-11T14:28:19.069Z,54.10
2018-09-11T14:30:47.303Z,54.16
2018-09-11T14:33:15.571Z,53.89
2018-09-11T14:35:43.816Z,54.06
2018-09-11T14:38:12.474Z,53.64
2018-09-11T14:40:40.682Z,53.71
2018-09-11T14:43:09.045Z,53.89
2018-09-11T14:45:37.427Z,54.20
2018-09-11T14:48:06.119Z,53.62
2018-09-11T14:50:34.394Z,53.76
2018-09-11T14:53:02.663Z,53.66
2018-09-11T14:55:30.948Z,53.94
2018-09-11T14:57:59.182Z,54.10
2018-09-11T15:00:27.414Z,53.72
2018-09-11T15:02:55.699Z,54.07
2018-09-11T15:05:23.969Z,53.80
2018-09-11T15:07:52.308Z,53.97
2018-09-11T15:10:20.446Z,53.86
2018-09-11T15:12:48.675Z,53.61
2018-09-11T15:15:16.982Z,53.73
2018-09-11T15:17:45.265Z,53.54
2018-09-11T15:20:13.491Z,53.47
2018-09-11T15:22:41.813Z,53.61
2018-09-11T15:25:09.975Z,54.05
2018-09-11T15:27:38.255Z,53.63
2018-09-11T15:30:06.531Z,53.54
2018-09-11T15:32:34.867Z,54.05
2018-09-11T15:35:03.213Z,53.54
2018-09-11T15:37:31.439Z,54.08
2018-09-11T15:39:59.714Z,53.53
2018-09-11T15:42:27.941Z,54.05
2018-09-11T15:44:56.181Z,53.67
2018-09-11T15:47:30.889Z,53.95
2018-09-11T15:49:59.146Z,53.76
2018-09-11T15:52:27.438Z,53.54
2018-09-11T15:54:55.907Z,53.94
2018-09-11T15:57:24.177Z,53.86
2018-09-11T15:59:52.426Z,53.36
2018-09-11T16:02:20.646Z,53.57
2018-09-11T16:04:48.872Z,53.29
2018-09-11T16:07:17.129Z,53.25
2018-09-11T16:09:45.376Z,53.74
2018-09-11T16:12:13.641Z,53.59
2018-09-11T16:14:41.899Z,53.66
2018-09-11T16:17:10.117Z,53.63
2018-09-11T16:19:38.338Z,53.23
2018-09-11T16:22:06.650Z,53.12
2018-09-11T16:24:34.879Z,53.30
2018-09-11T16:27:03.172Z,53.61
2018-09-11T16:29:31.445Z,53.32
2018-09-11T16:31:59.714Z,53.20
2018-09-11T16:34:27.935Z,53.04
2018-09-11T16:36:56.150Z,53.13
2018-09-11T16:39:24.386Z,53.43
2018-09-11T16:41:52.697Z,53.05
2018-09-11T16:44:20.933Z,53.37
2018-09-11T16:46:49.187Z,52.95
2018-09-11T16:49:17.457Z,52.94
2018-09-11T16:51:45.721Z,52.79
2018-09-11T16:54:13.927Z,52.75
2018-09-11T16:56:42.172Z,53.04
2018-09-11T16:59:10.419Z,52.57
2018-09-11T17:01:38.755Z,52.55
2018-09-11T17:04:07.010Z,52.84
2018-09-11T17:06:35.223Z,52.77
2018-09-11T17:09:03.727Z,53.23
2018-09-11T17:11:31.951Z,52.83
2018-09-11T17:14:00.154Z,52.84
2018-09-11T17:16:28.521Z,52.83
2018-09-11T17:18:56.783Z,53.33
2018-09-11T17:21:25.025Z,52.86
2018-09-11T17:23:53.239Z,53.30
2018-09-11T17:26:21.520Z,53.30
2018-09-11T17:28:49.817Z,53.30
2018-09-11T17:31:18.175Z,52.97
2018-09-11T17:33:46.447Z,52.91
2018-09-11T17:36:14.751Z,52.90
2018-09-11T17:38:43.058Z,52.84
2018-09-11T17:41:11.291Z,53.08
2018-09-11T17:43:39.569Z,53.33
2018-09-11T17:46:07.783Z,52.91
2018-09-11T17:48:36.160Z,53.33
2018-09-11T17:51:04.377Z,53.40
2018-09-11T17:53:32.635Z,52.93
2018-09-11T17:56:00.925Z,53.04
2018-09-11T17:58:29.158Z,53.33
2018-09-11T18:00:57.511Z,53.39
2018-09-11T18:03:25.784Z,53.32
2018-09-11T18:05:54.070Z,52.93
2018-09-11T18:08:22.287Z,53.34
2018-09-11T18:10:50.504Z,53.38
2018-09-11T18:13:18.745Z,53.36
2018-09-11T18:15:47.151Z,52.90
2018-09-11T18:18:15.343Z,53.21
2018-09-11T18:20:43.603Z,53.15
2018-09-11T18:23:11.949Z,52.78
2018-09-11T18:25:40.255Z,52.81
2018-09-11T18:28:08.555Z,53.16
2018-09-11T18:30:36.794Z,52.80
2018-09-11T18:33:05.054Z,53.20
2018-09-11T18:35:33.311Z,52.92
2018-09-11T18:38:01.653Z,52.96
2018-09-11T18:40:29.995Z,52.84
2018-09-11T18:42:58.334Z,52.93
2018-09-11T18:45:26.583Z,52.91
2018-09-11T18:47:54.803Z,53.41
2018-09-11T18:50:23.021Z,53.25
2018-09-11T18:52:51.328Z,52.80
2018-09-11T18:55:19.686Z,52.93
2018-09-11T18:57:48.083Z,52.93
2018-09-11T19:00:19.335Z,53.48
2018-09-11T19:02:47.641Z,53.27
2018-09-11T19:05:15.951Z,53.25
2018-09-11T19:07:44.148Z,53.32
2018-09-11T19:10:12.506Z,53.36
2018-09-11T19:12:40.779Z,53.34
2018-09-11T19:15:09.034Z,53.58
2018-09-11T19:17:37.497Z,53.49
2018-09-11T19:20:06.255Z,53.47
2018-09-11T19:22:34.596Z,53.57
2018-09-11T19:25:02.898Z,53.59
2018-09-11T19:27:31.141Z,53.63
2018-09-11T19:29:59.471Z,54.35
2018-09-11T19:32:27.779Z,53.69
2018-09-11T19:34:56.081Z,53.65
2018-09-11T19:37:24.322Z,53.85
2018-09-11T19:39:52.539Z,54.07
2018-09-11T19:42:20.965Z,54.14
2018-09-11T19:44:49.158Z,54.12
2018-09-11T19:47:17.394Z,54.11
2018-09-11T19:49:45.772Z,54.18
2018-09-11T19:52:14.071Z,54.18
2018-09-11T19:54:42.367Z,53.80
2018-09-11T19:57:10.659Z,54.08
2018-09-11T19:59:39.815Z,54.21
2018-09-11T20:02:08.043Z,53.88
2018-09-11T20:04:36.297Z,54.28
2018-09-11T20:07:04.545Z,54.32
2018-09-11T20:09:32.750Z,53.91
2018-09-11T20:12:01.077Z,53.94
2018-09-11T20:14:29.313Z,54.46
2018-09-11T20:16:57.583Z,54.11
2018-09-11T20:19:25.799Z,54.16
2018-09-11T20:21:54.139Z,54.17
2018-09-11T20:24:22.417Z,54.24
2018-09-11T20:26:50.683Z,54.33
2018-09-11T20:29:19.003Z,54.62
2018-09-11T20:31:47.458Z,54.72
2018-09-11T20:34:16.001Z,54.68
2018-09-11T20:36:44.223Z,54.33
2018-09-11T20:39:13.133Z,54.27
2018-09-11T20:41:41.447Z,54.71
2018-09-11T20:44:10.529Z,54.28
2018-09-11T20:46:38.894Z,54.37
2018-09-11T20:49:07.260Z,54.36
2018-09-11T20:51:35.479Z,54.60
2018-09-11T20:54:03.902Z,54.32
2018-09-11T20:56:32.192Z,54.25
2018-09-11T20:59:00.639Z,54.28
2018-09-11T21:02:58.113Z,54.17
2018-09-11T21:05:26.429Z,54.53
2018-09-11T21:07:54.685Z,54.31
2018-09-11T21:10:22.989Z,54.55
2018-09-11T21:12:51.235Z,54.38
2018-09-11T21:15:19.524Z,54.37
2018-09-11T21:17:47.799Z,54.14
2018-09-11T21:20:16.084Z,54.15
2018-09-11T21:22:44.354Z,54.33
2018-09-11T21:25:12.605Z,54.13
2018-09-11T21:27:40.903Z,54.14
2018-09-11T21:30:09.114Z,54.08
2018-09-11T21:32:37.381Z,54.46
2018-09-11T21:35:06.407Z,54.22
2018-09-11T21:37:34.646Z,54.05
2018-09-11T21:40:03.291Z,54.39
2018-09-11T21:42:32.648Z,54.05
2018-09-11T21:45:00.931Z,53.98
2018-09-11T21:47:29.162Z,54.26
2018-09-11T21:49:57.454Z,53.96
2018-09-11T21:52:25.877Z,53.98
2018-09-11T21:54:54.379Z,54.35
2018-09-11T21:57:22.722Z,54.00
2018-09-11T21:59:51.096Z,53.93
2018-09-11T22:02:19.375Z,54.03
2018-09-11T22:04:47.592Z,54.03
2018-09-11T22:07:15.876Z,54.17
2018-09-11T22:09:44.118Z,54.35
2018-09-11T22:12:12.453Z,54.18
2018-09-11T22:14:40.764Z,54.38
2018-09-11T22:17:08.955Z,54.35
2018-09-11T22:19:37.235Z,53.95
2018-09-11T22:22:05.466Z,54.29
2018-09-11T22:24:33.721Z,54.01
2018-09-11T22:27:01.943Z,54.35
2018-09-11T22:29:30.166Z,53.93
2018-09-11T22:31:58.380Z,53.97
2018-09-11T22:34:26.650Z,53.99
2018-09-11T22:36:54.867Z,53.98
2018-09-11T22:39:23.140Z,54.32
2018-09-11T22:41:51.383Z,54.35
2018-09-11T22:44:19.673Z,54.07
2018-09-11T22:46:47.977Z,54.00
2018-09-11T22:49:16.225Z,54.36
2018-09-11T22:51:44.528Z,54.14
2018-09-11T22:54:12.799Z,54.11
2018-09-11T22:56:40.985Z,53.93
2018-09-11T22:59:09.239Z,53.87
2018-09-11T23:01:37.533Z,54.29
2018-09-11T23:04:05.822Z,53.94
2018-09-11T23:06:34.087Z,54.40
2018-09-11T23:09:02.389Z,54.26
2018-09-11T23:11:30.654Z,54.22
2018-09-11T23:13:58.867Z,53.91
2018-09-11T23:16:27.215Z,53.86
2018-09-11T23:18:55.522Z,54.28
2018-09-11T23:21:23.762Z,53.86
2018-09-11T23:23:52.047Z,53.79
2018-09-11T23:26:20.420Z,53.91
2018-09-11T23:28:48.682Z,53.99
2018-09-11T23:31:16.956Z,54.24
2018-09-11T23:33:45.215Z,53.76
2018-09-11T23:36:13.486Z,53.92
2018-09-11T23:38:41.707Z,54.10
2018-09-11T23:41:10.109Z,54.04
2018-09-11T23:43:38.363Z,53.69
2018-09-11T23:46:06.755Z,54.22
2018-09-11T23:48:34.991Z,53.95
2018-09-11T23:51:03.277Z,53.91
2018-09-11T23:53:31.546Z,54.04
2018-09-11T23:55:59.866Z,54.02
2018-09-11T23:58:28.185Z,53.65
